• Join FlightAware (Why Join?)
  • Login
  • US Flag 
03:02AM EDT


 

Airport Tracker/Info


-or-


 

Live Flight TrackerFlight Track Log ✈ SWA1628 ✈ 19-Jun-2013 ✈ KJAX - KBNA

Flight Track Log - Related Links

Times and Time Zones

All times are in EDT time to prevent confusion due to time zone crossing. See the SWA1628 flight status page for this flight to view local times or setup timezone preferences in your user account.

Time Position Orientation Groundspeed Altitude Reporting Facility
EDT Latitude Longitude Course Direction KTS MPH feet Rate Location/Type
04:06PM 30.5328 -81.7542 314° West 234 269 3,000  Level Jacksonville Center
04:08PM 30.5942 -81.8258 315° West 260 299 6,600 2,820 Climbing Jacksonville Center
04:09PM 30.6592 -81.8736 328° Northwest 266 306 9,300 2,760 Climbing Jacksonville Center
04:10PM 30.7283 -81.9236 328° Northwest 278 320 12,200 2,700 Climbing Jacksonville Center
04:11PM 30.7997 -81.9758 328° Northwest 290 334 14,800 2,640 Climbing Jacksonville Center
04:12PM 30.8567 -82.0456 314° West 295 339 17,500 2,280 Climbing Jacksonville Center
04:13PM 30.9053 -82.1300 304° West 295 339 19,400 1,800 Climbing Jacksonville Center
04:14PM 30.9558 -82.2217 303° West 317 365 21,100 1,800 Climbing Jacksonville Center
04:15PM 31.0086 -82.3181 303° West 340 391 23,000 1,680 Climbing Jacksonville Center
04:16PM 31.0569 -82.4219 299° West 360 414 24,500 1,320 Climbing Jacksonville Center
04:17PM 31.1661 -82.5806 309° West 367 422 26,700 1,140 Climbing Atlanta Center
04:18PM 31.2467 -82.6789 314° West 391 450 27,600 600 Climbing Atlanta Center
04:19PM 31.3269 -82.7822 312° West 415 478 28,000 180 Climbing Atlanta Center
04:20PM 31.4300 -82.8561 329° Northwest 420 483 28,000  Level Atlanta Center
04:21PM 31.5533 -82.8958 345° North 432 497 28,000  Level Atlanta Center
04:22PM 31.6767 -82.9114 354° North 441 507 28,000  Level Atlanta Center
04:23PM 31.8019 -82.9100 North 441 507 28,000  Level Atlanta Center
04:24PM 31.9292 -82.9133 359° North 446 513 28,000  Level Atlanta Center
04:25PM 32.0547 -82.9289 354° North 446 513 28,000  Level Atlanta Center
04:26PM 32.1639 -82.9936 333° Northwest 435 501 28,000  Level Atlanta Center
04:27PM 32.2606 -83.0858 321° Northwest 432 497 28,000  Level Atlanta Center
04:28PM 32.3344 -83.1908 310° West 425 489 28,000  Level Atlanta Center
04:29PM 32.3769 -83.3183 292° West 418 481 28,000  Level Atlanta Center
04:30PM 32.4172 -83.4433 291° West 411 473 28,000  Level Atlanta Center
04:31PM 32.4617 -83.5711 292° West 417 480 28,000  Level Atlanta Center
04:32PM 32.5372 -83.6792 310° West 417 480 28,000  Level Atlanta Center
04:33PM 32.6397 -83.7553 328° Northwest 408 470 28,000  Level Atlanta Center
04:34PM 32.7483 -83.8289 330° Northwest 428 493 28,000  Level Atlanta Center
04:35PM 32.8550 -83.9053 329° Northwest 438 504 28,000  Level Atlanta Center
04:36PM 32.9636 -83.9769 331° Northwest 443 510 28,000 1,020 Level Atlanta Center
04:37PM 33.0678 -84.0511 329° Northwest 443 510 30,100 1,560 Climbing Atlanta Center
04:38PM 33.1825 -84.1306 330° Northwest 443 510 31,200 1,380 Climbing Atlanta Center
04:39PM 33.2911 -84.2003 332° Northwest 443 510 32,900 1,380 Climbing Atlanta Center
04:40PM 33.3911 -84.2753 328° Northwest 437 503 34,000 540 Climbing Atlanta Center
04:41PM 33.4953 -84.3453 331° Northwest 432 497 34,000  Level Atlanta Center
04:42PM 33.5828 -84.4053 330° Northwest 432 497 34,000  Level Atlanta Center
04:43PM 33.7017 -84.4708 335° Northwest 432 497 34,000  Level Atlanta Center
04:44PM 33.8206 -84.5214 341° North 437 503 34,000  Level Atlanta Center
04:45PM 33.9372 -84.5747 339° North 442 509 34,000  Level Atlanta Center
04:46PM 34.0536 -84.6281 339° North 442 509 34,000 -180 Level Atlanta Center
04:47PM 34.1850 -84.6842 341° North 451 519 33,700 -600 Descending Atlanta Center
04:48PM 34.2953 -84.7428 336° Northwest 440 506 32,800 -960 Descending Atlanta Center
04:49PM 34.3992 -84.8217 328° Northwest 430 495 31,800 -1,020 Descending Atlanta Center
04:50PM 34.4989 -84.8958 329° Northwest 430 495 30,800 -900 Descending Atlanta Center
04:51PM 34.6006 -84.9725 328° Northwest 435 501 30,000 -420 Descending Atlanta Center
04:52PM 34.6939 -85.0442 328° Northwest 435 501 30,000 -240 Level Atlanta Center
04:53PM 34.7933 -85.1239 327° Northwest 435 501 29,600 -660 Descending Atlanta Center
04:54PM 34.8928 -85.2036 327° Northwest 435 501 28,700 -960 Descending Atlanta Center
04:55PM 34.9944 -85.2786 329° Northwest 435 501 27,700 -1,020 Descending Atlanta Center
04:56PM 35.0917 -85.3561 327° Northwest 429 494 26,700 -1,020 Descending Atlanta Center
04:57PM 35.1825 -85.4389 323° Northwest 429 494 25,700 -1,020 Descending Atlanta Center
04:58PM 35.2447 -85.5189 314° West 415 478 24,900 -960 Descending Memphis Center
04:59PM 35.3236 -85.6211 313° West 415 478 24,000 -780 Descending Memphis Center
05:00PM 35.4047 -85.7211 315° West 415 478 23,400 -2,100 Descending Memphis Center
05:01PM 35.4900 -85.8311 314° West 410 472 19,800 -3,240 Descending Memphis Center
05:02PM 35.5644 -85.9292 313° West 405 466 17,000 -2,820 Descending Memphis Center
05:03PM 35.6219 -86.0231 307° West 393 452 14,200 -2,220 Descending Memphis Center
05:04PM 35.6650 -86.1231 298° West 361 415 12,600 -1,140 Descending Memphis Center
05:05PM 35.7222 -86.2119 308° West 346 398 12,000 -900 Descending Memphis Center
05:06PM 35.7753 -86.2989 307° West 327 376 10,800 -1,380 Descending Memphis Center
05:08PM 35.8767 -86.4681 307° West 298 343 7,900 -1,680 Descending Memphis Center
05:09PM 35.9228 -86.5428 307° West 283 326 5,800 -1,860 Descending Memphis Center
05:10PM 35.9686 -86.6178 307° West 283 326 4,200 -1,560 Descending Memphis Center
05:11PM 36.0142 -86.6719 316° Northwest 258 297 2,700 -1,020 Descending Memphis Center
05:12PM 36.0625 -86.6903 343° North 207 238 2,200 -900 Descending Memphis Center
05:13PM 36.0975 -86.6733 21° North 151 174 1,000 -780 Descending Memphis Center
05:14PM 36.1350 -86.6742 359° North 144 166 700 -300 Descending Memphis Center